Relevés horaires Bierset (Belgique)


Relevés horaires à Bierset - Jeudi 08 Nov. 2018
Heure UTC1 Température [°C] Vent [km/h] Hum. [%] Pres.4 [hPa] Visi. [Km] Nébu. [octa] Préc.5 [mm] Cond.
2m. Res. Ros. Dir.2 Vit. Moy. Raf.3
23:00 6.6 6.6 3.9 ESE 3.7 3.7 11.1 83 1017(-1.7/3h) 30 7/8 -- --
22:00 7.5 7.5 4.2 ESE 1.9 3.7 11.1 80 1017.5(-1.7/3h) 30 5/8 -- --
21:00 7.3 6.5 3.7 ESE 5.6 5.6 13.0 78 1018.3(-1.5/3h) 30 5/8 -- --
20:00 7.8 7.8 3.7 ESE 3.7 5.6 13.0 75 1018.7(-1.2/3h) 30 7/8 -- --
19:00 8.7 8.7 3.7 ESE 3.7 3.7 11.1 71 1019.2(-0.8/3h) 30 4/8 -- --
18:00 9.8 9.8 3.2 ESE 3.7 5.6 14.8 63 1019.6(-0.9/3h) 30 1/8 0/12h
--
17:00 10.3 10.3 3.3 E 3.7 3.7 3.7 62 1019.7(-1.1/3h) 30 1/8 -- --
16:00 11.5 11.5 3.2 SE 1.9 5.6 14.8 57 1019.8(-1.4/3h) 30 2/8 -- --
15:00 12.3 12.3 3.2 SE 3.7 5.6 9.3 54 1020.3(-1.4/3h) 30 1/8 -- --
14:00 12.4 12.4 3.8 SE 3.7 3.7 7.4 56 1020.7(-1.3/3h) 20 1/8 -- --
13:00 12.7 12.7 5.3 SSO 1.9 5.6 9.3 61 1021.1(-0.8/3h) 20 1/8 -- --
12:00 12.0 12.0 5.5 SSE 3.7 9.3 14.8 64 1021.8(0.2/3h) 20 1/8 0/6h
--
11:00 10.9 10.2 5.8 S 7.4 9.3 11.1 71 1022.2(1.2/3h) 20 1/8 -- --
10:00 9.5 8.6 6.2 S 7.4 7.4 11.1 80 1022.2(1.5/3h) 20 1/8 -- --
09:00 8.5 7 6.1 SSO 9.3 9.3 14.8 85 1021.8(1.9/3h) 12 1/8 -- --
08:00 7.9 6.7 6.3 S 7.4 7.4 14.8 90 1021.2(2.3/3h) 12 1/8 -- --
07:00 8.0 6.8 6.9 SSO 7.4 9.3 14.8 93 1020.7(2.8/3h) 18 1/8 -- --
06:00 8.5 7.9 7.2 S 5.6 13.0 18.5 92 1019.9(3.1/3h) 12 0/8 0/12h
--
05:00 9.2 7.8 7.6 SSO 9.3 11.1 16.7 90 1018.8(2.8/3h) 25 5/8 -- --
04:00 10.1 8.6 8.2 SO 11.1 13.0 16.7 88 1017.6(2.5/3h) 40 7/8 -- --
03:00 10.7 9.3 7.9 SSO 11.1 11.1 18.5 83 1016.6(2.2/3h) 30 7/8 -- --
02:00 10.9 9.8 7.6 S 9.3 11.1 18.5 80 1015.8(2.1/3h) 50 7/8 -- --
01:00 11.1 9.8 7.9 S 11.1 11.1 14.8 81 1015(1.9/3h) 50 6/8 -- --
00:00 11.1 10.1 8.1 S 9.3 11.1 18.5 82 1014.3(2.0/3h) 50 7/8 0/6h
0/24h
--

1 Coordinated Universal Time. Actuellement il est 01:00 locale et 23:00 UTC.

2 Le vent souffle depuis la direction indiquée vers la direction oposée.

3 Les rafales max. sont disponible 40 min après l'heure du relevé.

4 Pour les stations d'altitude (plus de 600m) le géopotentiel du niveau le plus proche de la pression obligatoire est indiqué.

5 Les stations disposant d'un diffuseur peuvent indiquer "trace". Cela signifie que des précipitations ont touchés le sol mais que la quantité est inférieure à 0.1 mm.

Récapitulatif de la journée
Température [°C] Vent [km/h] Ensoleillement4 [h] Precipitations totale5 [mm] Pression [Hpa]
Min1 Max.2 Moy.3 Max. Min Max.
8.5 12.9 7.7 18.5 0 h 0 min 0 1014.3 1022.2

1 Température minimale relevée entre 18:00 UTC la veille et 18:00 UTC le jour donné.

2 Température maximale relevée entre 06:00 UTC le jour donné et 06:00 UTC le lendemain.

3 Vent moyen de la journée basé sur les relevés horaires.

4 Ensoleillement en heures relevé entre 06:00 UTC la veille et 06:00 UTC le jour donné.

5 Précipitations totales tombées entre 06:00 UTC la jour donné et 06:00 UTC le lendemain.

Graphiques horaires